Time;durP1;ratioP1;P1;durP2;ratioP2;P2;SDS_P1;SDS_P2;PMS_P1;PMS_P2;Temp;Humidity;BMP_temperature;BMP_pressure;BME280_temperature;BME280_humidity;BME280_pressure;Samples;Min_cycle;Max_cycle;Signal;HPM_P1;HPM_P2
2022/06/29 00:00:16;;;;;;;3.40;2.85;;;;;;;16.28;77.53;101623.53;5076031;28;20162;-67
2022/06/29 00:02:45;;;;;;;4.43;2.60;;;;;;;16.02;80.28;101624.63;5067486;28;20115;-67
2022/06/29 00:05:13;;;;;;;4.93;2.92;;;;;;;15.99;80.07;101627.53;5049590;28;20045;-67
2022/06/29 00:07:40;;;;;;;7.00;3.17;;;;;;;15.72;81.49;101619.66;5068533;28;20036;-67
2022/06/29 00:10:07;;;;;;;3.80;3.25;;;;;;;15.90;79.59;101622.81;5070810;28;20051;-67
2022/06/29 00:12:33;;;;;;;4.93;3.22;;;;;;;15.88;80.03;101622.94;5070771;28;20036;-67
2022/06/29 00:15:02;;;;;;;6.97;3.15;;;;;;;15.95;78.82;101621.50;5071457;28;20044;-67
2022/06/29 00:17:28;;;;;;;3.75;3.00;;;;;;;15.90;79.86;101614.75;5071490;28;20054;-67
2022/06/29 00:19:54;;;;;;;4.10;3.33;;;;;;;15.87;80.38;101613.16;5070082;28;20157;-67
2022/06/29 00:22:19;;;;;;;6.80;3.50;;;;;;;15.82;81.22;101615.31;5052419;28;20040;-66
2022/06/29 00:24:44;;;;;;;3.13;2.75;;;;;;;15.88;80.49;101614.88;5071976;28;20024;-66
2022/06/29 00:27:10;;;;;;;6.82;3.22;;;;;;;15.76;81.63;101611.25;5070599;28;20048;-65
2022/06/29 00:29:37;;;;;;;8.65;3.53;;;;;;;15.60;81.53;101615.97;5069889;28;20115;-67
2022/06/29 00:32:03;;;;;;;8.10;3.40;;;;;;;15.70;81.44;101611.69;5070032;28;20792;-66
2022/06/29 00:34:28;;;;;;;6.32;3.35;;;;;;;15.64;82.05;101612.13;5071566;28;20260;-67
2022/06/29 00:36:54;;;;;;;6.95;3.78;;;;;;;15.61;82.14;101604.25;5071820;28;20069;-67
2022/06/29 00:39:19;;;;;;;5.68;3.38;;;;;;;15.49;82.64;101603.31;5082187;22;20479;-65
2022/06/29 00:41:45;;;;;;;8.73;3.58;;;;;;;15.39;83.25;101614.84;5082460;28;20040;-65
2022/06/29 00:44:15;;;;;;;5.97;3.70;;;;;;;15.43;82.99;101603.75;5077539;28;20064;-65
2022/06/29 00:46:50;;;;;;;4.18;3.70;;;;;;;15.55;81.89;101600.16;5082306;28;20035;-65
2022/06/29 00:49:19;;;;;;;5.68;3.45;;;;;;;15.59;81.71;101599.97;5078495;28;20068;-65
2022/06/29 00:51:49;;;;;;;9.93;3.80;;;;;;;15.64;80.88;101589.78;5105960;28;20504;-65
2022/06/29 00:54:20;;;;;;;5.55;3.53;;;;;;;15.35;82.04;101592.69;5087302;28;20047;-65
2022/06/29 00:56:46;;;;;;;5.35;3.47;;;;;;;15.48;81.52;101588.16;5105706;28;20036;-67
2022/06/29 00:59:16;;;;;;;4.63;3.85;;;;;;;15.25;83.39;101589.78;5087224;28;20028;-66
2022/06/29 01:01:42;;;;;;;4.97;3.60;;;;;;;15.40;81.89;101593.22;5107494;28;20085;-66
2022/06/29 01:04:08;;;;;;;5.80;3.65;;;;;;;15.39;82.72;101583.44;5106771;28;20043;-66
2022/06/29 01:06:34;;;;;;;7.35;3.45;;;;;;;15.27;82.95;101582.50;5105846;28;20032;-66
2022/06/29 01:09:00;;;;;;;3.67;3.28;;;;;;;15.26;83.76;101574.53;5105139;28;20073;-66
2022/06/29 01:11:26;;;;;;;8.35;3.85;;;;;;;15.26;83.00;101582.59;5105877;28;20044;-67
2022/06/29 01:13:52;;;;;;;4.60;4.10;;;;;;;15.14;84.26;101583.47;5082504;28;20046;-66
2022/06/29 01:16:17;;;;;;;5.35;3.78;;;;;;;15.19;84.11;101584.00;5094662;28;20035;-66
2022/06/29 01:18:43;;;;;;;4.82;3.72;;;;;;;15.03;85.00;101586.91;5102704;28;20038;-66
2022/06/29 01:21:10;;;;;;;6.15;4.65;;;;;;;14.96;84.42;101586.50;5092200;28;20047;-66
2022/06/29 01:23:36;;;;;;;7.43;4.15;;;;;;;15.08;84.53;101583.91;5071580;28;20062;-66
2022/06/29 01:26:05;;;;;;;5.00;3.85;;;;;;;15.21;83.13;101582.94;5106776;28;20063;-66
2022/06/29 01:28:31;;;;;;;5.22;4.03;;;;;;;15.20;83.04;101581.19;5105805;28;20035;-66
2022/06/29 01:30:58;;;;;;;6.95;4.10;;;;;;;15.08;83.67;101579.38;5104499;28;20473;-65
2022/06/29 01:33:24;;;;;;;8.20;4.13;;;;;;;15.13;83.35;101573.69;5105034;28;20043;-65
2022/06/29 01:35:50;;;;;;;6.30;4.35;;;;;;;15.11;83.04;101572.94;5104055;28;20043;-65
2022/06/29 01:38:16;;;;;;;4.85;4.35;;;;;;;15.11;82.98;101564.88;5104385;28;20148;-65
2022/06/29 01:40:42;;;;;;;5.85;4.18;;;;;;;15.01;83.93;101578.13;5102799;28;20113;-65
2022/06/29 01:43:07;;;;;;;7.90;4.60;;;;;;;14.91;84.68;101574.31;5104367;28;20035;-65
2022/06/29 01:45:33;;;;;;;9.60;4.38;;;;;;;14.96;84.19;101567.69;5103077;28;20047;-66
2022/06/29 01:47:58;;;;;;;8.45;4.85;;;;;;;14.85;85.90;101564.88;5117915;27;20039;-65
2022/06/29 01:50:24;;;;;;;6.25;4.47;;;;;;;14.89;84.78;101554.78;5067774;28;20144;-65
2022/06/29 01:52:49;;;;;;;6.80;4.90;;;;;;;14.84;84.61;101563.16;5103048;28;20036;-65
2022/06/29 01:55:15;;;;;;;7.00;4.47;;;;;;;14.73;85.84;101563.91;5084282;28;20524;-66
2022/06/29 01:57:40;;;;;;;12.98;4.50;;;;;;;14.83;84.97;101563.28;5090424;28;20731;-65
2022/06/29 02:00:06;;;;;;;7.07;5.10;;;;;;;14.63;86.58;101551.25;5091714;28;20457;-65
2022/06/29 02:02:32;;;;;;;7.15;4.80;;;;;;;14.59;87.39;101557.78;5092038;28;20035;-65
2022/06/29 02:04:58;;;;;;;11.98;5.72;;;;;;;14.40;88.09;101563.50;5109647;28;20043;-66
2022/06/29 02:07:23;;;;;;;6.15;4.90;;;;;;;14.51;87.99;101558.31;5092634;28;20028;-66
2022/06/29 02:09:49;;;;;;;5.63;4.78;;;;;;;14.53;88.38;101548.31;5110645;28;20039;-65
2022/06/29 02:12:14;;;;;;;7.40;5.20;;;;;;;14.59;87.64;101547.03;5111015;28;20092;-65
2022/06/29 02:14:40;;;;;;;6.50;5.25;;;;;;;14.67;86.83;101547.38;5092122;28;20044;-65
2022/06/29 02:17:05;;;;;;;6.10;4.97;;;;;;;14.63;86.47;101541.34;5095796;28;20042;-65
2022/06/29 02:19:31;;;;;;;9.18;4.93;;;;;;;14.63;87.45;101538.66;5109873;28;20078;-65
2022/06/29 02:21:56;;;;;;;11.32;5.05;;;;;;;14.60;87.37;101541.56;5091014;28;20069;-66
2022/06/29 02:24:22;;;;;;;9.57;4.75;;;;;;;14.45;88.63;101535.38;5109218;28;20055;-65
2022/06/29 02:26:50;;;;;;;6.10;4.95;;;;;;;14.35;88.70;101538.81;5108152;28;20036;-65
2022/06/29 02:29:16;;;;;;;8.70;5.68;;;;;;;14.18;89.49;101537.28;5096786;28;20067;-65
2022/06/29 02:34:43;;;;;;;6.20;4.38;;;;;;;13.71;89.78;101531.44;5096473;28;20044;-65
2022/06/29 02:37:12;;;;;;;7.40;5.35;;;;;;;13.87;89.75;101538.47;5094396;28;20686;-65
2022/06/29 02:39:38;;;;;;;8.23;4.97;;;;;;;13.95;89.41;101530.75;5089978;28;20054;-65
2022/06/29 02:42:05;;;;;;;13.75;6.30;;;;;;;14.12;88.68;101535.00;5109036;28;20047;-65
2022/06/29 02:44:31;;;;;;;8.13;5.75;;;;;;;13.99;89.33;101534.97;5094536;28;20061;-65
2022/06/29 02:46:56;;;;;;;7.18;6.45;;;;;;;14.08;89.15;101530.81;5090309;28;20032;-65
2022/06/29 02:49:22;;;;;;;6.22;5.57;;;;;;;14.22;89.11;101522.69;5109503;28;20044;-66
2022/06/29 02:51:48;;;;;;;6.55;5.80;;;;;;;14.18;89.33;101524.72;5090501;28;20105;-65
2022/06/29 02:54:13;;;;;;;8.38;5.80;;;;;;;14.18;89.41;101526.53;5090189;28;20382;-65
2022/06/29 02:56:39;;;;;;;9.32;6.28;;;;;;;14.27;88.75;101527.75;5109036;28;20036;-65
2022/06/29 02:59:04;;;;;;;7.85;6.03;;;;;;;14.25;88.92;101517.09;5090324;28;20035;-65
2022/06/29 03:01:30;;;;;;;6.28;5.68;;;;;;;14.27;89.36;101517.03;5091429;28;20040;-65
2022/06/29 03:03:55;;;;;;;6.47;5.55;;;;;;;14.18;89.48;101524.72;5100158;28;20066;-65
2022/06/29 03:06:21;;;;;;;8.57;6.10;;;;;;;14.19;88.81;101512.16;5103568;28;20039;-65
2022/06/29 03:08:46;;;;;;;6.85;5.90;;;;;;;14.16;89.54;101507.03;5093114;28;20092;-65
2022/06/29 03:11:12;;;;;;;7.63;6.25;;;;;;;14.16;89.30;101507.03;5088719;28;20046;-65
2022/06/29 03:13:37;;;;;;;12.80;6.93;;;;;;;14.30;88.31;101504.22;5106991;28;20037;-65
2022/06/29 03:16:03;;;;;;;8.65;6.60;;;;;;;14.21;88.80;101495.00;5107011;28;20042;-65
2022/06/29 03:18:29;;;;;;;7.57;6.78;;;;;;;14.12;89.03;101497.47;5107224;28;20091;-65
2022/06/29 03:20:54;;;;;;;14.43;6.70;;;;;;;14.27;88.10;101506.28;5097824;28;20024;-66
2022/06/29 03:23:20;;;;;;;11.70;6.38;;;;;;;14.05;89.28;101499.69;5068449;28;20770;-65
2022/06/29 03:25:45;;;;;;;8.13;7.22;;;;;;;14.19;88.54;101496.06;5099032;28;20044;-65
2022/06/29 03:28:11;;;;;;;11.68;7.22;;;;;;;14.25;88.13;101490.28;5098901;28;20039;-66
2022/06/29 03:30:36;;;;;;;7.93;6.72;;;;;;;14.17;89.08;101487.28;5087032;28;20039;-65
2022/06/29 03:33:02;;;;;;;14.18;7.15;;;;;;;14.18;89.21;101484.47;5105990;28;20053;-66
2022/06/29 03:35:27;;;;;;;10.43;7.07;;;;;;;14.20;88.87;101482.53;5087009;28;20038;-65
2022/06/29 03:37:53;;;;;;;8.90;7.95;;;;;;;14.15;89.38;101487.38;5105196;28;20802;-65
2022/06/29 03:40:18;;;;;;;9.48;7.32;;;;;;;14.15;89.61;101489.19;5100767;28;20063;-65
2022/06/29 03:42:44;;;;;;;10.60;7.25;;;;;;;13.98;90.82;101488.50;5101999;28;20036;-65
2022/06/29 03:45:10;;;;;;;10.00;7.80;;;;;;;14.03;91.03;101488.22;5084583;28;20089;-65
2022/06/29 03:47:35;;;;;;;9.73;7.80;;;;;;;14.03;90.99;101487.34;5080344;28;20100;-66
2022/06/29 03:50:01;;;;;;;10.20;7.95;;;;;;;14.05;90.45;101490.78;5091711;28;20039;-65
2022/06/29 03:52:29;;;;;;;9.63;8.57;;;;;;;14.19;89.77;101488.88;5087169;28;20131;-65
2022/06/29 03:54:54;;;;;;;10.02;8.27;;;;;;;14.01;90.62;101490.16;5105110;28;20043;-66
2022/06/29 03:57:20;;;;;;;15.27;8.75;;;;;;;14.01;91.56;101487.47;5093795;28;20039;-66
2022/06/29 03:59:45;;;;;;;15.82;8.75;;;;;;;14.06;91.09;101485.34;5081725;28;20047;-66
2022/06/29 04:02:11;;;;;;;11.32;8.18;;;;;;;14.18;90.29;101472.91;5085879;28;20051;-65
2022/06/29 04:04:36;;;;;;;10.90;8.63;;;;;;;14.42;88.59;101473.03;5072337;28;20035;-65
2022/06/29 04:07:02;;;;;;;9.60;7.63;;;;;;;14.33;89.60;101481.72;5104569;28;20043;-65
2022/06/29 04:09:27;;;;;;;9.73;7.60;;;;;;;13.97;90.47;101484.13;5104292;28;20435;-65
2022/06/29 04:11:53;;;;;;;11.23;8.63;;;;;;;13.96;90.90;101473.50;5085931;28;20409;-65
2022/06/29 04:14:21;;;;;;;11.57;7.10;;;;;;;14.20;89.97;101474.50;5085781;28;20077;-65
2022/06/29 04:16:47;;;;;;;11.57;7.95;;;;;;;14.38;88.88;101477.75;5101353;28;20059;-66
2022/06/29 04:19:12;;;;;;;11.27;8.20;;;;;;;14.49;89.00;101475.19;5074515;28;20498;-65
2022/06/29 04:21:38;;;;;;;8.60;7.75;;;;;;;14.49;89.76;101474.34;5103943;28;20127;-66
2022/06/29 04:24:04;;;;;;;12.57;8.70;;;;;;;14.68;87.77;101477.47;5086340;28;20039;-65
2022/06/29 04:26:30;;;;;;;8.95;8.05;;;;;;;14.62;88.60;101477.06;5104612;28;20131;-65
2022/06/29 04:28:55;;;;;;;9.95;8.82;;;;;;;14.76;88.79;101474.25;5090367;28;20036;-65
2022/06/29 04:31:20;;;;;;;10.05;8.05;;;;;;;14.96;86.99;101468.31;5103665;28;20443;-65
2022/06/29 04:33:46;;;;;;;10.52;8.40;;;;;;;14.89;88.16;101474.22;5104380;28;20044;-66
2022/06/29 04:36:12;;;;;;;9.27;8.30;;;;;;;14.95;88.12;101473.78;5102797;28;20489;-65
2022/06/29 04:38:37;;;;;;;10.05;8.60;;;;;;;15.01;89.06;101470.69;5102958;28;20514;-66
2022/06/29 04:41:02;;;;;;;10.27;8.20;;;;;;;15.17;88.29;101465.06;5105603;27;20066;-66
2022/06/29 04:43:29;;;;;;;9.90;8.93;;;;;;;15.27;87.90;101469.63;5100484;27;20084;-65
2022/06/29 04:48:40;;;;;;;14.98;10.02;;;;;;;15.18;88.26;101469.44;5103124;28;20118;-66
2022/06/29 04:51:05;;;;;;;10.52;9.40;;;;;;;15.55;86.63;101463.06;5103517;28;20043;-66
2022/06/29 04:53:31;;;;;;;13.48;10.45;;;;;;;15.54;88.77;101457.81;5102915;28;20070;-66
2022/06/29 04:55:56;;;;;;;11.20;9.68;;;;;;;16.05;86.87;101458.44;5102461;28;20035;-65
2022/06/29 04:58:22;;;;;;;10.98;9.13;;;;;;;18.06;78.28;101458.44;5071732;28;20081;-66
2022/06/29 05:00:48;;;;;;;8.18;7.30;;;;;;;19.75;71.20;101444.38;5102247;28;20040;-66
2022/06/29 05:03:13;;;;;;;11.38;7.68;;;;;;;20.42;68.67;101444.28;5067517;28;20746;-67
2022/06/29 05:05:39;;;;;;;9.40;7.45;;;;;;;21.30;65.54;101425.84;5098817;28;20051;-66
2022/06/29 05:08:05;;;;;;;9.20;7.35;;;;;;;21.79;64.41;101439.03;5098892;28;20054;-68
2022/06/29 05:10:31;;;;;;;11.60;7.32;;;;;;;22.49;60.84;101429.97;5110380;27;20034;-68
2022/06/29 05:12:57;;;;;;;12.13;6.43;;;;;;;23.08;58.52;101430.09;5063275;28;20119;-69
2022/06/29 05:15:22;;;;;;;10.07;6.07;;;;;;;23.48;57.38;101428.50;5100353;27;20119;-69
2022/06/29 05:17:48;;;;;;;6.35;5.57;;;;;;;23.90;54.76;101431.16;5084427;28;20047;-69
2022/06/29 05:20:15;;;;;;;6.80;5.97;;;;;;;23.35;57.13;101430.88;5063307;27;20044;-69
2022/06/29 05:22:40;;;;;;;6.68;5.13;;;;;;;23.68;55.96;101432.66;5099705;27;20149;-69
2022/06/29 05:25:06;;;;;;;9.65;5.47;;;;;;;24.24;52.93;101446.44;5112419;27;20126;-69
2022/06/29 05:27:33;;;;;;;10.48;6.00;;;;;;;23.96;55.18;101438.63;5103993;27;20050;-69
2022/06/29 05:29:58;;;;;;;6.03;4.95;;;;;;;23.94;55.95;101434.38;5106940;27;20377;-69
2022/06/29 05:32:24;;;;;;;9.68;5.20;;;;;;;23.59;56.37;101425.44;5103994;27;20040;-69
2022/06/29 05:34:49;;;;;;;8.68;4.88;;;;;;;23.75;55.37;101424.69;5109601;27;20036;-69
2022/06/29 05:37:15;;;;;;;5.28;4.10;;;;;;;23.86;54.91;101423.50;5102811;28;20854;-70
2022/06/29 05:39:42;;;;;;;6.85;4.40;;;;;;;24.09;52.15;101423.63;5078774;28;20047;-70
2022/06/29 05:42:08;;;;;;;4.32;3.92;;;;;;;24.62;50.58;101425.81;5102254;28;20213;-69
2022/06/29 05:44:34;;;;;;;6.05;3.95;;;;;;;24.75;52.65;101417.03;5101303;28;20122;-71
2022/06/29 05:46:59;;;;;;;12.43;4.32;;;;;;;24.59;52.78;101428.88;5082603;28;20566;-70
2022/06/29 05:49:25;;;;;;;6.13;4.30;;;;;;;24.39;51.34;101420.22;5082404;28;20751;-70
2022/06/29 05:51:50;;;;;;;5.78;4.57;;;;;;;24.42;51.86;101419.88;5082632;28;20032;-69
2022/06/29 05:54:16;;;;;;;9.52;4.50;;;;;;;24.13;52.52;101425.00;5101085;28;20904;-69
2022/06/29 05:56:41;;;;;;;8.00;4.55;;;;;;;24.95;52.90;101414.75;5100280;28;20621;-69
2022/06/29 05:59:07;;;;;;;5.32;3.80;;;;;;;24.80;50.88;101410.06;5064422;28;20490;-70
2022/06/29 06:01:32;;;;;;;5.80;3.85;;;;;;;24.92;50.90;101412.41;5104176;28;20140;-69
2022/06/29 06:03:57;;;;;;;7.93;4.13;;;;;;;24.69;49.62;101418.59;5109408;28;20031;-69
2022/06/29 06:06:23;;;;;;;4.47;3.95;;;;;;;24.77;49.39;101409.56;5111667;28;20785;-70
2022/06/29 06:08:48;;;;;;;11.65;4.88;;;;;;;25.31;49.12;101406.94;5064539;28;20039;-70
2022/06/29 06:11:14;;;;;;;8.85;4.57;;;;;;;25.20;50.54;101412.78;5100733;28;20035;-70
2022/06/29 06:13:39;;;;;;;6.63;4.40;;;;;;;25.50;48.84;101408.34;5078520;28;20039;-70
2022/06/29 06:16:05;;;;;;;5.95;4.35;;;;;;;25.23;49.63;101420.63;5096412;28;20671;-70
2022/06/29 06:18:31;;;;;;;4.45;3.88;;;;;;;25.40;50.33;101416.75;5089677;28;20043;-70
2022/06/29 06:20:56;;;;;;;5.15;4.18;;;;;;;24.42;50.59;101429.94;5084065;28;20063;-73
2022/06/29 06:23:22;;;;;;;4.82;4.07;;;;;;;23.97;52.92;101428.59;5100539;28;20366;-70
2022/06/29 06:25:47;;;;;;;4.88;3.65;;;;;;;23.68;54.60;101434.53;5103236;28;20043;-69
2022/06/29 06:28:13;;;;;;;6.70;4.25;;;;;;;22.82;57.23;101429.28;5072394;28;20027;-68
2022/06/29 06:30:38;;;;;;;6.70;4.55;;;;;;;22.82;57.91;101429.28;5105389;28;20028;-68
2022/06/29 06:33:04;;;;;;;7.28;4.50;;;;;;;22.62;57.21;101423.22;5098962;28;20031;-69
2022/06/29 06:35:30;;;;;;;8.27;4.40;;;;;;;22.75;57.83;101419.06;5098815;28;20031;-68
2022/06/29 06:37:56;;;;;;;5.90;4.78;;;;;;;22.27;59.65;101422.31;5100645;28;20486;-68
2022/06/29 06:43:05;;;;;;;6.85;5.18;;;;;;;22.50;57.51;101422.66;5101611;28;20438;-68
2022/06/29 06:45:31;;;;;;;9.57;6.00;;;;;;;22.19;64.86;101425.00;5105902;27;20036;-66
2022/06/29 06:47:56;;;;;;;5.45;5.03;;;;;;;22.13;62.55;101418.31;5125893;28;20052;-66
2022/06/29 06:50:22;;;;;;;9.75;5.80;;;;;;;22.04;66.88;101421.97;5111371;28;20053;-65
2022/06/29 06:52:47;;;;;;;6.72;5.47;;;;;;;22.20;66.73;101418.56;5124111;28;20108;-67
2022/06/29 06:55:13;;;;;;;6.95;5.50;;;;;;;22.51;63.70;101410.75;5112147;28;20032;-67
2022/06/29 06:57:39;;;;;;;7.10;6.22;;;;;;;22.63;64.18;101414.03;5107313;28;20032;-67
2022/06/29 07:00:05;;;;;;;7.13;5.32;;;;;;;22.64;62.19;101410.31;5146359;27;20046;-66
2022/06/29 07:02:30;;;;;;;8.07;5.72;;;;;;;22.39;64.98;101417.47;5134089;27;20020;-66
2022/06/29 07:04:56;;;;;;;6.95;5.65;;;;;;;22.14;61.93;101427.31;5136583;27;20027;-67
2022/06/29 07:07:21;;;;;;;5.38;4.88;;;;;;;22.40;61.15;101425.47;5130338;28;20036;-66
2022/06/29 07:09:47;;;;;;;5.82;5.05;;;;;;;22.50;62.71;101428.09;5131989;27;20042;-66
2022/06/29 07:12:13;;;;;;;8.38;6.15;;;;;;;23.19;60.16;101420.75;5115685;28;20031;-67
2022/06/29 07:14:38;;;;;;;6.07;5.10;;;;;;;22.95;57.10;101414.25;5130090;28;20042;-66
2022/06/29 07:17:04;;;;;;;6.18;5.30;;;;;;;23.41;58.57;101409.28;5131141;28;20027;-67
2022/06/29 07:19:29;;;;;;;7.82;4.78;;;;;;;23.36;59.92;101411.66;5131096;28;20051;-66
2022/06/29 07:21:55;;;;;;;9.23;4.82;;;;;;;23.62;57.12;101413.38;5115845;28;20096;-66
2022/06/29 07:24:21;;;;;;;5.22;4.72;;;;;;;23.96;57.68;101413.28;5131347;28;20039;-66
2022/06/29 07:26:46;;;;;;;7.45;5.05;;;;;;;23.93;55.57;101416.31;5126727;28;20043;-66
2022/06/29 07:29:11;;;;;;;5.68;4.28;;;;;;;25.50;53.71;101402.88;5133465;27;20040;-66
2022/06/29 07:31:37;;;;;;;10.40;4.85;;;;;;;24.97;54.51;101416.28;5140428;27;20028;-67
2022/06/29 07:34:03;;;;;;;6.53;4.47;;;;;;;24.70;52.46;101411.28;5131479;27;20107;-66
2022/06/29 07:36:29;;;;;;;6.57;4.70;;;;;;;25.12;52.57;101400.06;5114635;28;20054;-66
2022/06/29 07:38:54;;;;;;;8.48;4.95;;;;;;;25.57;50.34;101395.66;5126526;27;20476;-66
2022/06/29 07:41:20;;;;;;;8.02;4.55;;;;;;;26.03;53.27;101399.25;5129403;28;20046;-67
2022/06/29 07:43:46;;;;;;;5.40;4.07;;;;;;;26.28;50.32;101391.66;5130622;28;20040;-67
2022/06/29 07:46:12;;;;;;;5.50;3.60;;;;;;;26.45;51.14;101388.75;5129856;28;20020;-66
2022/06/29 07:48:37;;;;;;;10.07;4.70;;;;;;;26.29;54.13;101393.34;5112130;28;20039;-67
2022/06/29 07:51:03;;;;;;;5.72;4.00;;;;;;;26.71;50.62;101396.50;5111457;28;20038;-66
2022/06/29 07:53:28;;;;;;;5.97;4.03;;;;;;;26.94;45.77;101393.66;5129173;28;20107;-66
2022/06/29 07:55:54;;;;;;;5.30;3.72;;;;;;;26.80;49.89;101393.47;5129117;28;20027;-66
2022/06/29 07:58:21;;;;;;;5.05;3.72;;;;;;;26.47;48.48;101392.19;5111102;28;20044;-67
2022/06/29 08:00:46;;;;;;;4.28;3.78;;;;;;;27.22;45.90;101383.72;5117186;27;20307;-67
2022/06/29 08:03:12;;;;;;;5.25;4.00;;;;;;;27.57;46.65;101384.72;5118703;27;20042;-72
2022/06/29 08:05:38;;;;;;;8.10;3.60;;;;;;;27.29;46.11;101384.63;5102614;28;20115;-68
2022/06/29 08:08:04;;;;;;;5.88;4.10;;;;;;;26.54;48.18;101396.69;5123001;27;20640;-69
2022/06/29 08:10:31;;;;;;;5.95;3.75;;;;;;;27.68;49.55;101383.34;5109933;27;20095;-69
2022/06/29 08:12:57;;;;;;;7.85;3.78;;;;;;;27.20;45.76;101393.16;5089635;27;20036;-68
2022/06/29 08:15:23;;;;;;;5.13;3.63;;;;;;;27.85;46.00;101397.63;5091307;27;20069;-70
2022/06/29 08:17:49;;;;;;;6.80;3.83;;;;;;;28.29;45.05;101399.25;5105301;28;20072;-69
2022/06/29 08:20:15;;;;;;;6.68;3.85;;;;;;;27.21;46.76;101389.38;5104808;28;20031;-69
2022/06/29 08:22:41;;;;;;;5.47;3.65;;;;;;;27.83;45.37;101394.25;5104512;28;20051;-69
2022/06/29 08:25:08;;;;;;;5.97;3.45;;;;;;;27.74;45.12;101388.06;5090499;27;20076;-69
2022/06/29 08:27:34;;;;;;;4.18;3.13;;;;;;;28.13;43.76;101386.72;5099812;27;20055;-69
2022/06/29 08:30:00;;;;;;;12.68;4.72;;;;;;;27.69;44.39;101395.16;5103157;28;20052;-69
2022/06/29 08:32:26;;;;;;;6.97;3.22;;;;;;;27.85;44.17;101383.94;5099358;28;20036;-69
2022/06/29 08:34:52;;;;;;;3.38;2.38;;;;;;;27.12;44.45;101385.91;5097311;28;20087;-69
2022/06/29 08:37:18;;;;;;;5.22;2.90;;;;;;;27.84;44.28;101391.31;5101627;28;20035;-69
2022/06/29 08:39:44;;;;;;;4.47;2.85;;;;;;;28.44;45.22;101380.81;5099238;28;20079;-69
2022/06/29 08:42:10;;;;;;;5.40;2.53;;;;;;;27.80;44.01;101383.69;5108702;27;20327;-69
2022/06/29 08:44:37;;;;;;;2.28;1.63;;;;;;;27.40;44.24;101391.47;5111094;27;20062;-69
2022/06/29 08:47:08;;;;;;;3.50;1.90;;;;;;;28.39;43.22;101381.44;5110002;27;20498;-69
2022/06/29 08:49:36;;;;;;;2.88;2.25;;;;;;;29.31;40.58;101379.31;5091213;28;20035;-69
2022/06/29 08:52:07;;;;;;;2.20;1.88;;;;;;;29.19;45.27;101376.34;5107238;28;20035;-69
2022/06/29 08:54:46;;;;;;;6.50;2.20;;;;;;;28.93;39.61;101373.47;5097021;28;20039;-69
2022/06/29 08:57:12;;;;;;;4.47;2.25;;;;;;;29.58;43.50;101372.03;5096101;28;20043;-69
2022/06/29 08:59:37;;;;;;;2.47;2.00;;;;;;;29.12;42.41;101380.97;5109276;28;20050;-69
2022/06/29 09:02:03;;;;;;;3.40;2.58;;;;;;;28.51;40.79;101378.97;5109297;28;20027;-69
2022/06/29 09:04:29;;;;;;;5.88;2.88;;;;;;;29.01;44.37;101367.81;5111039;28;20069;-69
2022/06/29 09:06:56;;;;;;;3.83;3.10;;;;;;;28.68;44.08;101364.91;5105215;28;20031;-69
2022/06/29 09:09:23;;;;;;;4.20;2.72;;;;;;;28.58;44.38;101374.38;5112685;28;20142;-69
2022/06/29 09:11:52;;;;;;;2.83;2.63;;;;;;;28.78;46.82;101368.97;5112855;28;20055;-69
2022/06/29 09:14:27;;;;;;;5.85;2.50;;;;;;;28.50;47.02;101370.94;5093748;28;20066;-69
2022/06/29 09:17:03;;;;;;;4.80;2.75;;;;;;;28.09;45.25;101367.06;5113105;28;20099;-69
2022/06/29 09:19:35;;;;;;;5.03;2.72;;;;;;;28.31;45.65;101366.97;5108081;28;20069;-70
2022/06/29 09:22:02;;;;;;;10.00;2.67;;;;;;;28.51;43.95;101359.75;5114056;28;20047;-67
2022/06/29 09:24:30;;;;;;;4.25;2.42;;;;;;;28.13;45.89;101370.25;5120631;28;20105;-68
2022/06/29 09:26:58;;;;;;;3.50;2.03;;;;;;;27.82;40.51;101367.91;5121916;28;20034;-68
2022/06/29 09:29:26;;;;;;;2.95;1.98;;;;;;;28.23;44.75;101372.66;5116253;28;20038;-69
2022/06/29 09:32:07;;;;;;;2.88;2.00;;;;;;;28.37;42.84;101369.81;5103914;28;20040;-68
2022/06/29 09:34:35;;;;;;;8.03;2.13;;;;;;;27.85;44.91;101364.75;5123258;28;20084;-68
2022/06/29 09:37:02;;;;;;;3.67;1.88;;;;;;;27.83;41.42;101361.38;5121546;28;20491;-69
2022/06/29 09:39:39;;;;;;;2.65;1.65;;;;;;;28.25;39.63;101365.88;5116858;28;20071;-68
2022/06/29 09:42:07;;;;;;;4.43;1.45;;;;;;;28.47;37.01;101360.38;5124530;28;20277;-68
2022/06/29 09:44:33;;;;;;;3.00;1.80;;;;;;;28.65;40.84;101356.03;5120373;28;20245;-68
2022/06/29 09:47:03;;;;;;;1.58;1.48;;;;;;;28.02;39.60;101362.59;5108153;28;20060;-69
2022/06/29 09:49:29;;;;;;;4.60;1.58;;;;;;;28.34;41.57;101359.25;5124749;27;20454;-69
2022/06/29 09:51:57;;;;;;;4.47;1.73;;;;;;;27.98;40.85;101362.13;5086880;28;20032;-69
2022/06/29 09:54:31;;;;;;;3.42;1.88;;;;;;;27.83;42.11;101369.59;5098440;28;20047;-68
2022/06/29 09:56:58;;;;;;;4.88;1.63;;;;;;;27.37;42.09;101369.97;5095916;28;20541;-69
2022/06/29 10:02:35;;;;;;;6.43;2.28;;;;;;;27.39;42.69;101370.59;5092451;28;20047;-68
2022/06/29 10:05:06;;;;;;;3.03;1.80;;;;;;;27.35;42.06;101366.56;5098272;28;20145;-68
2022/06/29 10:07:32;;;;;;;;;;;;;;;27.78;40.06;101369.34;5092532;28;20545;-68
2022/06/29 10:09:59;;;;;;;7.80;1.52;;;;;;;28.17;42.43;101365.22;5087187;28;19998;-69
2022/06/29 10:15:40;;;;;;;2.77;1.73;;;;;;;28.30;36.73;101362.53;5102297;28;20043;-69
2022/06/29 10:18:13;;;;;;;1.60;1.27;;;;;;;28.15;38.97;101351.69;5085814;28;20476;-69
2022/06/29 10:20:42;;;;;;;4.55;1.65;;;;;;;28.33;38.98;101359.41;5092270;28;20156;-69
2022/06/29 10:23:07;;;;;;;4.05;1.40;;;;;;;28.01;37.80;101355.38;5105834;28;20187;-72
2022/06/29 10:25:33;;;;;;;5.15;1.45;;;;;;;28.13;36.00;101359.28;5105288;28;20040;-68
2022/06/29 10:28:09;;;;;;;3.78;1.55;;;;;;;28.76;37.27;101342.75;5093958;28;20554;-69
2022/06/29 10:30:37;;;;;;;2.72;1.52;;;;;;;28.67;39.19;101346.72;5080740;28;20094;-68
2022/06/29 10:33:27;;;;;;;10.48;1.80;;;;;;;28.45;39.76;101340.50;5095373;28;20142;-68
2022/06/29 10:36:07;;;;;;;3.40;1.67;;;;;;;28.36;36.84;101345.31;5104095;28;20149;-68
2022/06/29 10:38:58;;;;;;;2.72;1.80;;;;;;;28.29;39.17;101345.25;5105105;27;20123;-68
2022/06/29 10:44:07;;;;;;;1.48;1.30;;;;;;;28.62;41.02;101331.75;5105835;28;20093;-68
2022/06/29 10:46:58;;;;;;;2.22;1.52;;;;;;;27.89;37.15;101338.63;5104425;28;20043;-68
2022/06/29 10:49:25;;;;;;;3.63;1.23;;;;;;;28.32;40.12;101336.63;5104583;28;20529;-68
2022/06/29 10:51:50;;;;;;;2.15;1.48;;;;;;;28.42;39.91;101330.81;5103935;28;20035;-68
2022/06/29 10:54:23;;;;;;;4.63;1.65;;;;;;;29.07;39.41;101326.66;5085578;28;20054;-69
2022/06/29 10:56:49;;;;;;;1.85;1.50;;;;;;;28.69;36.66;101331.78;5078666;28;20036;-68
2022/06/29 10:59:34;;;;;;;2.65;1.35;;;;;;;29.19;38.58;101326.06;5096110;28;20511;-68
2022/06/29 11:02:26;;;;;;;1.90;1.20;;;;;;;28.93;37.55;101329.53;5091345;28;20051;-68
2022/06/29 11:04:52;;;;;;;2.20;1.42;;;;;;;28.77;38.86;101328.00;5099396;28;20098;-68
2022/06/29 11:12:47;;;;;;;3.85;1.45;;;;;;;28.56;38.14;101328.94;5103817;28;20043;-68
2022/06/29 11:15:42;;;;;;;4.32;1.70;;;;;;;28.80;39.85;101322.09;5088703;27;20118;-68
2022/06/29 11:18:19;;;;;;;;;;;;;;;28.10;36.51;101316.63;5101156;28;20154;-68
2022/06/29 11:20:50;;;;;;;2.90;1.40;;;;;;;29.17;41.39;101312.53;5097458;28;19947;-68
2022/06/29 11:23:20;;;;;;;2.13;1.55;;;;;;;29.03;37.44;101314.41;5084968;28;20046;-69
2022/06/29 11:25:54;;;;;;;4.05;1.25;;;;;;;28.61;37.20;101313.56;5102978;28;20070;-68
2022/06/29 11:28:23;;;;;;;3.88;1.52;;;;;;;29.08;37.82;101308.28;5096867;28;20130;-68
2022/06/29 11:31:06;;;;;;;3.15;1.45;;;;;;;28.37;39.54;101305.88;5097603;28;20035;-67
2022/06/29 11:33:42;;;;;;;3.22;1.38;;;;;;;28.44;38.89;101300.41;5097719;28;20070;-68
2022/06/29 11:36:08;;;;;;;3.78;1.40;;;;;;;28.88;37.38;101298.06;5103228;28;20036;-68
2022/06/29 11:38:44;;;;;;;1.65;1.30;;;;;;;28.19;35.80;101300.88;5102760;28;20028;-69
2022/06/29 11:44:12;;;;;;;;;;;;;;;28.31;36.57;101290.16;5103272;28;20048;-68
2022/06/29 11:46:37;;;;;;;1.52;1.20;;;;;;;28.36;37.05;101287.69;5102618;28;19915;-67
2022/06/29 11:51:58;;;;;;;7.70;1.80;;;;;;;29.00;36.69;101278.25;5101986;28;20036;-68